Ana Sayfa
METAR-TAF:

METAR-TAF

Havaalanları :

Baia Mare, Romanya

Enlem: 47-40N, Boylam: 023-35E, yükseklik: 218 m

Güncel hava durumu gözlemi

Rapor saat 11:00 UTC de 27 dakika önce yapıldı.
Sakin rüzgar
Sıcaklık 5°C
Nem 100%
Basınç 1017 hPa
Görüş mesafesi 10 km veya daha fazla
2800 ft yükseklikte az bulutlu

METAR: LRBM 111100Z 00000KT 9999 FEW028 05/05 Q1017 R09/19//95

Saat: 13:27 (11:27 UTC)

Tahmin

Rapor saat 08:00 UTC de 3 saat ve 27 dakika önce yapıldı.
Ayın 11'si saat 09 UTC'den ayın 11'si saat 18 UTC'ye kadar geçerli Tahmin
Rüzgar değişken yönden 4 kt
Görüş mesafesi 10 km veya daha fazla
1000 ft yükseklikte parçalı çok bulutlu
2000 ft yükseklikte çok bulutlu
Geçici
ayın 11'si saat 09 UTC'den ayın 11'si saat 12 UTC'ye kadar
Görüş mesafesi: 5000 m
500 ft yükseklikte parçalı çok bulutlu
2000 ft yükseklikte çok bulutlu
hafif yağmur, Pus

TAF: LRBM 110800Z 1109/1118 VRB04KT 9999 BKN010 OVC020 TEMPO 1109/1112 5000 -RA BR BKN005 OVC020

4.000'den fazla havaalanı için hava durumu gözlemleri ve tahminleri (METAR ve TAF raporları).

Kullanılabilir istasyonlar harita üzerinde sarı ve kırmızı noktalarla gösterilir.

İstasyonun adını görmek için fareyi noktanın üzerinde gezdirin.

Sonrasında hava gözlem ve tahminlerini görmek için tıklayın.

Haritayı değiştirmek için: yaklaştırmak için siyah artı işaretli yeşil düğmeye ve uzaklaştırmak için de eksi işaretli düğmeye hızla tıklayın; bitişik haritalar için yeşil okları kullanın.


METAR-TAF: